createdAt,value
2023-01-08T00:01:47.480Z,50.57
2023-01-08T00:04:18.121Z,51.07
2023-01-08T00:06:47.246Z,51.80
2023-01-08T00:09:16.285Z,50.77
2023-01-08T00:11:45.981Z,49.10
2023-01-08T00:14:14.867Z,47.63
2023-01-08T00:16:43.937Z,46.47
2023-01-08T00:19:13.233Z,48.40
2023-01-08T00:21:43.539Z,49.00
2023-01-08T00:24:13.057Z,46.13
2023-01-08T00:26:41.967Z,47.90
2023-01-08T00:29:11.021Z,49.73
2023-01-08T00:31:39.955Z,48.13
2023-01-08T00:34:09.005Z,46.73
2023-01-08T00:36:38.020Z,47.27
2023-01-08T00:39:08.048Z,46.73
2023-01-08T00:41:36.977Z,47.93
2023-01-08T00:44:06.642Z,46.93
2023-01-08T00:46:35.353Z,48.27
2023-01-08T00:49:04.230Z,45.37
2023-01-08T00:51:33.109Z,45.67
2023-01-08T00:54:01.834Z,48.37
2023-01-08T00:56:32.463Z,47.17
2023-01-08T00:59:01.242Z,47.47
2023-01-08T01:01:30.228Z,46.53
2023-01-08T01:03:59.362Z,46.77
2023-01-08T01:06:28.106Z,46.77
2023-01-08T01:08:57.317Z,47.33
2023-01-08T01:11:28.529Z,48.63
2023-01-08T01:13:59.635Z,47.40
2023-01-08T01:16:28.761Z,50.20
2023-01-08T01:18:58.772Z,48.70
2023-01-08T01:21:30.304Z,46.70
2023-01-08T01:24:01.383Z,48.90
2023-01-08T01:26:30.464Z,49.57
2023-01-08T01:29:01.932Z,46.93
2023-01-08T01:31:32.713Z,46.40
2023-01-08T01:34:01.540Z,47.10
2023-01-08T01:36:30.423Z,47.03
2023-01-08T01:38:59.636Z,47.57
2023-01-08T01:41:30.451Z,50.73
2023-01-08T01:44:21.670Z,50.27
2023-01-08T01:46:51.793Z,46.73
2023-01-08T01:49:24.082Z,46.77
2023-01-08T01:51:55.275Z,46.67
2023-01-08T01:54:24.730Z,47.80
2023-01-08T01:56:53.996Z,48.83
2023-01-08T01:59:24.683Z,47.30
2023-01-08T02:01:54.413Z,48.33
2023-01-08T02:04:23.642Z,49.00
2023-01-08T02:07:01.064Z,49.33
2023-01-08T02:09:42.127Z,52.03
2023-01-08T02:12:19.581Z,49.90
2023-01-08T02:15:04.814Z,51.20
2023-01-08T02:17:40.947Z,51.23
2023-01-08T02:20:13.682Z,54.83
2023-01-08T02:23:09.703Z,56.07
2023-01-08T02:25:58.271Z,54.73
2023-01-08T02:28:30.163Z,55.60
2023-01-08T02:30:59.874Z,59.10
2023-01-08T02:33:30.349Z,58.23
2023-01-08T02:36:32.324Z,63.73
2023-01-08T02:39:32.050Z,60.67
2023-01-08T02:42:08.403Z,59.30
2023-01-08T02:44:48.877Z,59.57
2023-01-08T02:47:24.054Z,51.70
2023-01-08T02:49:59.753Z,50.50
2023-01-08T02:52:33.793Z,50.40
2023-01-08T02:55:05.013Z,48.23
2023-01-08T02:57:35.421Z,46.83
2023-01-08T03:00:07.115Z,46.70
2023-01-08T03:02:38.216Z,45.23
2023-01-08T03:05:14.644Z,43.50
2023-01-08T03:07:43.701Z,46.20
2023-01-08T03:10:13.362Z,45.00
2023-01-08T03:12:54.929Z,44.63
2023-01-08T03:15:31.954Z,45.20
2023-01-08T03:18:06.454Z,47.77
2023-01-08T03:20:38.528Z,52.67
2023-01-08T03:23:10.754Z,54.10
2023-01-08T03:25:42.918Z,51.13
2023-01-08T03:28:16.907Z,49.77
2023-01-08T03:30:48.564Z,47.30
2023-01-08T03:33:19.481Z,46.80
2023-01-08T03:35:51.413Z,49.47
2023-01-08T03:38:25.045Z,48.07
2023-01-08T03:40:58.107Z,48.50
2023-01-08T03:43:28.234Z,48.13
2023-01-08T03:46:03.677Z,47.40
2023-01-08T03:48:35.416Z,46.83
2023-01-08T03:51:04.275Z,47.50
2023-01-08T03:53:32.926Z,49.57
2023-01-08T03:56:02.044Z,46.83
2023-01-08T03:58:31.108Z,44.57
2023-01-08T04:01:02.549Z,46.23
2023-01-08T04:03:31.438Z,44.20
2023-01-08T04:06:01.242Z,44.53
2023-01-08T04:08:30.040Z,44.20
2023-01-08T04:10:58.892Z,44.87
2023-01-08T04:13:27.583Z,45.07
2023-01-08T04:15:58.241Z,44.63
2023-01-08T04:18:28.860Z,47.30
2023-01-08T04:20:57.664Z,44.60
2023-01-08T04:23:27.012Z,47.37
2023-01-08T04:25:56.017Z,46.93
2023-01-08T04:28:25.158Z,44.73
2023-01-08T04:30:54.245Z,44.57
2023-01-08T04:33:23.200Z,47.23
2023-01-08T04:35:53.585Z,48.93
2023-01-08T04:38:22.487Z,49.17
2023-01-08T04:40:51.491Z,50.83
2023-01-08T04:43:20.228Z,48.67
2023-01-08T04:45:49.010Z,53.97
2023-01-08T04:48:17.983Z,49.73
2023-01-08T04:50:47.054Z,52.70
2023-01-08T04:53:17.802Z,51.27
2023-01-08T04:55:46.525Z,54.93
2023-01-08T04:58:15.500Z,53.10
2023-01-08T05:00:44.411Z,52.33
2023-01-08T05:03:13.461Z,49.83
2023-01-08T05:05:42.681Z,49.33
2023-01-08T05:08:11.401Z,47.30
2023-01-08T05:10:42.121Z,46.63
2023-01-08T05:13:11.110Z,47.47
2023-01-08T05:15:40.069Z,50.00
2023-01-08T05:18:09.006Z,49.80
2023-01-08T05:20:37.997Z,51.53
2023-01-08T05:23:07.057Z,52.27
2023-01-08T05:25:36.241Z,53.07
2023-01-08T05:28:07.168Z,50.90
2023-01-08T05:30:37.507Z,53.90
2023-01-08T05:33:06.624Z,51.43
2023-01-08T05:35:35.353Z,52.10
2023-01-08T05:38:04.485Z,52.67
2023-01-08T05:40:33.626Z,53.77
2023-01-08T05:43:02.737Z,52.93
2023-01-08T05:45:33.729Z,54.33
2023-01-08T05:48:07.186Z,54.43
2023-01-08T05:50:36.527Z,52.90
2023-01-08T05:53:08.062Z,55.90
2023-01-08T05:55:37.616Z,55.07
2023-01-08T05:58:07.451Z,55.20
2023-01-08T06:00:38.019Z,56.37
2023-01-08T06:03:07.085Z,56.83
2023-01-08T06:05:35.947Z,56.33
2023-01-08T06:08:07.130Z,54.20
2023-01-08T06:10:39.025Z,55.03
2023-01-08T06:13:08.843Z,62.33
2023-01-08T06:15:40.356Z,57.37
2023-01-08T06:18:09.535Z,54.60
2023-01-08T06:20:38.563Z,55.83
2023-01-08T06:23:08.789Z,53.90
2023-01-08T06:25:37.767Z,48.37
2023-01-08T06:28:07.004Z,48.77
2023-01-08T06:30:35.959Z,49.97
2023-01-08T06:33:06.571Z,49.23
2023-01-08T06:35:35.433Z,48.50
2023-01-08T06:38:04.199Z,48.93
2023-01-08T06:40:33.279Z,49.20
2023-01-08T06:43:03.545Z,49.70
2023-01-08T06:45:33.131Z,51.20
2023-01-08T06:48:03.267Z,48.87
2023-01-08T06:50:34.342Z,48.77
2023-01-08T06:53:03.335Z,48.03
2023-01-08T06:55:32.197Z,48.20
2023-01-08T06:58:00.937Z,46.67
2023-01-08T07:00:29.804Z,48.67
2023-01-08T07:02:59.680Z,47.33
2023-01-08T07:05:28.944Z,47.77
2023-01-08T07:07:59.326Z,46.23
2023-01-08T07:10:28.538Z,46.93
2023-01-08T07:12:57.674Z,46.47
2023-01-08T07:15:26.741Z,46.53
2023-01-08T07:17:55.790Z,49.10
2023-01-08T07:20:24.580Z,46.97
2023-01-08T07:22:53.348Z,45.63
2023-01-08T07:25:25.287Z,48.30
2023-01-08T07:27:54.610Z,51.70
2023-01-08T07:30:29.887Z,45.87
2023-01-08T07:33:01.298Z,48.43
2023-01-08T07:35:30.721Z,47.00
2023-01-08T07:37:59.692Z,50.30
2023-01-08T07:40:29.863Z,52.17
2023-01-08T07:43:00.708Z,44.00
2023-01-08T07:45:30.493Z,51.23
2023-01-08T07:48:00.168Z,48.17
2023-01-08T07:50:29.724Z,46.30
2023-01-08T07:52:59.488Z,47.60
2023-01-08T07:55:31.801Z,47.50
2023-01-08T07:58:01.016Z,55.03
2023-01-08T08:00:29.852Z,49.70
2023-01-08T08:03:04.884Z,49.70
2023-01-08T08:05:35.264Z,49.60
2023-01-08T08:08:09.389Z,50.60
2023-01-08T08:10:41.323Z,45.00
2023-01-08T08:13:10.747Z,46.63
2023-01-08T08:15:41.215Z,47.43
2023-01-08T08:18:10.738Z,50.17
2023-01-08T08:20:40.178Z,49.10
2023-01-08T08:23:10.769Z,51.03
2023-01-08T08:25:41.623Z,49.73
2023-01-08T08:28:12.463Z,48.00
2023-01-08T08:30:42.633Z,45.37
2023-01-08T08:33:12.203Z,43.80
2023-01-08T08:35:42.141Z,44.63
2023-01-08T08:38:11.103Z,43.07
2023-01-08T08:40:43.130Z,47.40
2023-01-08T08:43:11.965Z,46.30
2023-01-08T08:45:40.952Z,50.87
2023-01-08T08:48:11.294Z,51.77
2023-01-08T08:50:40.821Z,54.70
2023-01-08T08:53:11.488Z,54.53
2023-01-08T08:55:42.202Z,55.47
2023-01-08T08:58:13.566Z,53.43
2023-01-08T09:00:44.369Z,51.07
2023-01-08T09:03:16.090Z,54.27
2023-01-08T09:05:45.569Z,49.80
2023-01-08T09:08:14.880Z,48.23
2023-01-08T09:10:44.970Z,50.07
2023-01-08T09:13:13.917Z,47.73
2023-01-08T09:15:42.715Z,48.03
2023-01-08T09:18:11.780Z,46.73
2023-01-08T09:20:40.778Z,45.13
2023-01-08T09:23:10.044Z,42.77
2023-01-08T09:25:39.101Z,40.17
2023-01-08T09:28:13.273Z,38.63
2023-01-08T09:30:42.395Z,38.67
2023-01-08T09:33:11.586Z,35.97
2023-01-08T09:35:40.495Z,35.13
2023-01-08T09:38:10.532Z,32.60
2023-01-08T09:40:43.321Z,29.07
2023-01-08T09:43:18.904Z,28.90
2023-01-08T09:45:52.023Z,28.50
2023-01-08T09:48:25.790Z,26.63
2023-01-08T09:50:54.997Z,27.93
2023-01-08T09:53:24.636Z,24.60
2023-01-08T09:56:09.165Z,25.60
2023-01-08T09:58:44.586Z,23.70
2023-01-08T10:01:16.472Z,24.17
2023-01-08T10:03:48.849Z,23.47
2023-01-08T10:06:18.924Z,25.00
2023-01-08T10:08:48.676Z,23.53
2023-01-08T10:11:18.297Z,22.30
2023-01-08T10:13:53.373Z,22.70
2023-01-08T10:16:30.518Z,22.57
2023-01-08T10:19:00.459Z,22.53
2023-01-08T10:21:33.168Z,22.40
2023-01-08T10:24:02.072Z,22.90
2023-01-08T10:26:33.584Z,23.23
2023-01-08T10:29:16.942Z,23.57
2023-01-08T10:31:51.535Z,23.40
2023-01-08T10:34:27.550Z,23.33
2023-01-08T10:36:57.489Z,22.70
2023-01-08T10:39:29.444Z,38.53
2023-01-08T10:42:06.589Z,32.73
2023-01-08T10:44:37.941Z,21.67
2023-01-08T10:47:07.920Z,21.50
2023-01-08T10:49:41.854Z,22.37
2023-01-08T10:52:27.983Z,20.77
2023-01-08T10:54:57.200Z,20.73
2023-01-08T10:57:28.436Z,21.07
2023-01-08T10:59:58.958Z,20.87
2023-01-08T11:02:38.081Z,20.83
2023-01-08T11:05:11.637Z,20.30
2023-01-08T11:07:42.011Z,21.00
2023-01-08T11:10:24.525Z,20.43
2023-01-08T11:12:57.833Z,22.33
2023-01-08T11:15:34.283Z,20.33
2023-01-08T11:18:09.290Z,20.93
2023-01-08T11:20:39.948Z,21.07
2023-01-08T11:23:17.723Z,19.57
2023-01-08T11:25:55.536Z,20.63
2023-01-08T11:28:33.193Z,19.90
2023-01-08T11:31:15.438Z,20.07
2023-01-08T11:33:49.168Z,19.73
2023-01-08T11:36:25.298Z,20.07
2023-01-08T11:38:54.227Z,19.93
2023-01-08T11:41:40.373Z,19.10
2023-01-08T11:44:25.485Z,20.30
2023-01-08T11:47:02.556Z,20.57
2023-01-08T11:49:57.130Z,22.60
2023-01-08T11:52:44.466Z,20.27
2023-01-08T11:55:41.813Z,20.40
2023-01-08T11:58:29.990Z,20.10
2023-01-08T12:01:06.895Z,20.50
2023-01-08T12:03:42.385Z,20.63
2023-01-08T12:06:24.607Z,20.67
2023-01-08T12:09:02.594Z,20.13
2023-01-08T12:11:36.228Z,24.30
2023-01-08T12:14:32.701Z,21.43
2023-01-08T12:17:14.116Z,21.97
2023-01-08T12:19:56.004Z,23.03
2023-01-08T12:22:35.625Z,21.27
2023-01-08T12:25:27.862Z,20.07
2023-01-08T12:28:09.462Z,21.63
2023-01-08T12:30:48.244Z,20.70
2023-01-08T12:33:34.616Z,22.13
2023-01-08T12:36:10.327Z,20.67
2023-01-08T12:38:43.389Z,20.10
2023-01-08T12:41:14.059Z,20.93
2023-01-08T12:43:51.563Z,20.97
2023-01-08T12:46:21.297Z,21.07
2023-01-08T12:48:53.205Z,21.83
2023-01-08T12:51:30.128Z,20.63
2023-01-08T12:54:08.421Z,20.37
2023-01-08T12:56:44.820Z,20.97
2023-01-08T12:59:25.250Z,21.33
2023-01-08T13:02:02.717Z,21.47
2023-01-08T13:04:41.990Z,20.83
2023-01-08T13:07:20.162Z,22.77
2023-01-08T13:09:57.103Z,21.33
2023-01-08T13:12:36.959Z,22.57
2023-01-08T13:15:06.939Z,21.90
2023-01-08T13:17:36.471Z,21.80
2023-01-08T13:20:08.866Z,21.53
2023-01-08T13:22:53.903Z,20.80
2023-01-08T13:25:35.025Z,22.57
2023-01-08T13:28:19.966Z,23.93
2023-01-08T13:30:50.089Z,21.57
2023-01-08T13:33:38.231Z,20.83
2023-01-08T13:36:21.002Z,20.27
2023-01-08T13:39:04.015Z,19.97
2023-01-08T13:41:34.700Z,19.80
2023-01-08T13:44:06.963Z,20.17
2023-01-08T13:46:38.972Z,20.90
2023-01-08T13:49:09.767Z,20.77
2023-01-08T13:51:44.683Z,19.50
2023-01-08T13:54:23.307Z,20.37
2023-01-08T13:56:55.809Z,25.77
2023-01-08T13:59:37.530Z,20.53
2023-01-08T14:02:22.422Z,20.13
2023-01-08T14:04:52.575Z,20.43
2023-01-08T14:07:21.897Z,20.20
2023-01-08T14:09:52.745Z,20.33
2023-01-08T14:12:23.265Z,21.73
2023-01-08T14:14:54.587Z,21.77
2023-01-08T14:17:28.509Z,22.37
2023-01-08T14:19:57.612Z,22.50
2023-01-08T14:22:32.417Z,23.60
2023-01-08T14:25:06.412Z,25.00
2023-01-08T14:27:36.427Z,25.07
2023-01-08T14:30:18.102Z,27.00
2023-01-08T14:32:47.228Z,30.93
2023-01-08T14:35:18.929Z,37.07
2023-01-08T14:37:48.055Z,36.80
2023-01-08T14:40:28.956Z,38.27
2023-01-08T14:42:59.401Z,37.77
2023-01-08T14:45:31.645Z,36.87
2023-01-08T14:48:02.876Z,38.07
2023-01-08T14:50:34.725Z,39.30
2023-01-08T14:53:09.160Z,39.13
2023-01-08T14:55:45.771Z,38.20
2023-01-08T14:58:17.700Z,39.40
2023-01-08T15:00:53.361Z,40.07
2023-01-08T15:03:32.796Z,40.40
2023-01-08T15:06:02.146Z,39.40
2023-01-08T15:08:36.452Z,39.60
2023-01-08T15:11:11.817Z,41.03
2023-01-08T15:13:40.933Z,42.10
2023-01-08T15:16:12.452Z,41.20
2023-01-08T15:18:46.505Z,38.73
2023-01-08T15:21:20.401Z,41.73
2023-01-08T15:23:51.642Z,41.40
2023-01-08T15:26:23.783Z,40.80
2023-01-08T15:28:55.676Z,40.87
2023-01-08T15:31:29.882Z,40.40
2023-01-08T15:33:59.968Z,40.70
2023-01-08T15:36:29.471Z,42.03
2023-01-08T15:38:58.646Z,46.07
2023-01-08T15:41:54.316Z,46.63
2023-01-08T15:44:24.266Z,45.53
2023-01-08T15:46:53.977Z,52.00
2023-01-08T15:49:22.937Z,44.83
2023-01-08T15:51:53.856Z,47.27
2023-01-08T15:54:26.458Z,47.67
2023-01-08T15:56:56.979Z,46.90
2023-01-08T15:59:26.075Z,48.37
2023-01-08T16:01:55.068Z,47.37
2023-01-08T16:04:24.522Z,46.37
2023-01-08T16:06:53.481Z,45.37
2023-01-08T16:09:22.559Z,44.83
2023-01-08T16:11:52.544Z,42.27
2023-01-08T16:14:23.180Z,45.43
2023-01-08T16:16:52.272Z,47.33
2023-01-08T16:19:21.006Z,39.60
2023-01-08T16:21:50.262Z,45.07
2023-01-08T16:24:19.371Z,39.40
2023-01-08T16:26:48.364Z,38.47
2023-01-08T16:29:17.496Z,56.67
2023-01-08T16:31:49.331Z,45.77
2023-01-08T16:34:18.361Z,38.93
2023-01-08T16:36:47.244Z,38.03
2023-01-08T16:39:16.081Z,37.33
2023-01-08T16:41:45.091Z,38.60
2023-01-08T16:44:19.512Z,40.17
2023-01-08T16:46:50.321Z,39.70
2023-01-08T16:49:19.078Z,39.90
2023-01-08T16:51:47.973Z,42.90
2023-01-08T16:54:18.041Z,45.90
2023-01-08T16:56:47.008Z,42.70
2023-01-08T16:59:23.152Z,40.40
2023-01-08T17:01:54.391Z,39.83
2023-01-08T17:04:23.442Z,35.97
2023-01-08T17:06:52.200Z,35.90
2023-01-08T17:09:21.048Z,35.13
2023-01-08T17:11:50.084Z,36.47
2023-01-08T17:14:19.168Z,33.23
2023-01-08T17:16:49.189Z,34.07
2023-01-08T17:19:19.729Z,32.10
2023-01-08T17:21:50.807Z,30.30
2023-01-08T17:24:19.920Z,30.77
2023-01-08T17:26:48.916Z,32.37
2023-01-08T17:29:18.004Z,29.87
2023-01-08T17:31:47.045Z,30.13
2023-01-08T17:34:16.139Z,29.70
2023-01-08T17:36:46.871Z,29.97
2023-01-08T17:39:15.675Z,28.73
2023-01-08T17:42:02.087Z,28.27
2023-01-08T17:44:31.396Z,28.67
2023-01-08T17:47:00.439Z,27.47
2023-01-08T17:49:31.402Z,28.63
2023-01-08T17:52:02.075Z,29.03
2023-01-08T17:54:31.494Z,28.17
2023-01-08T17:57:00.384Z,29.80
2023-01-08T17:59:29.536Z,26.90
2023-01-08T18:01:59.142Z,27.60
2023-01-08T18:04:28.244Z,28.30
2023-01-08T18:06:57.232Z,27.00
2023-01-08T18:09:27.915Z,28.60
2023-01-08T18:11:57.215Z,29.73
2023-01-08T18:14:26.231Z,27.20
2023-01-08T18:16:55.585Z,27.87
2023-01-08T18:19:25.323Z,36.60
2023-01-08T18:21:54.916Z,38.00
2023-01-08T18:24:23.886Z,32.87
2023-01-08T18:26:54.562Z,30.03
2023-01-08T18:29:23.566Z,27.20
2023-01-08T18:31:52.707Z,27.20
2023-01-08T18:34:21.653Z,26.57
2023-01-08T18:36:50.688Z,28.63
2023-01-08T18:39:19.735Z,25.47
2023-01-08T18:42:05.815Z,25.23
2023-01-08T18:44:36.509Z,24.37
2023-01-08T18:47:05.300Z,25.77
2023-01-08T18:49:34.398Z,25.53
2023-01-08T18:52:03.284Z,25.67
2023-01-08T18:54:33.717Z,24.87
2023-01-08T18:57:04.287Z,26.23
2023-01-08T18:59:33.250Z,23.63
2023-01-08T19:02:03.677Z,24.83
2023-01-08T19:04:32.650Z,22.53
2023-01-08T19:07:01.771Z,23.53
2023-01-08T19:09:30.761Z,25.30
2023-01-08T19:11:59.783Z,23.23
2023-01-08T19:14:28.808Z,24.43
2023-01-08T19:16:58.388Z,24.23
2023-01-08T19:19:29.217Z,23.27
2023-01-08T19:21:58.484Z,23.90
2023-01-08T19:24:27.504Z,22.80
2023-01-08T19:26:56.604Z,23.23
2023-01-08T19:29:25.662Z,24.00
2023-01-08T19:31:55.078Z,30.20
2023-01-08T19:34:24.364Z,31.47
2023-01-08T19:36:57.429Z,27.77
2023-01-08T19:39:29.779Z,27.33
2023-01-08T19:42:16.021Z,26.20
2023-01-08T19:44:45.302Z,23.37
2023-01-08T19:47:14.208Z,23.40
2023-01-08T19:49:47.652Z,23.77
2023-01-08T19:52:18.961Z,22.97
2023-01-08T19:54:48.328Z,23.57
2023-01-08T19:57:17.439Z,22.93
2023-01-08T19:59:46.429Z,22.53
2023-01-08T20:02:15.563Z,23.70
2023-01-08T20:04:44.728Z,22.50
2023-01-08T20:07:14.147Z,22.77
2023-01-08T20:09:44.798Z,24.47
2023-01-08T20:12:14.816Z,24.47
2023-01-08T20:14:43.729Z,22.97
2023-01-08T20:17:13.243Z,24.90
2023-01-08T20:19:42.269Z,23.43
2023-01-08T20:22:11.401Z,22.27
2023-01-08T20:24:40.888Z,22.97
2023-01-08T20:27:11.473Z,22.70
2023-01-08T20:29:40.420Z,24.10
2023-01-08T20:32:09.350Z,23.70
2023-01-08T20:34:38.603Z,22.80
2023-01-08T20:37:07.900Z,24.53
2023-01-08T20:39:36.968Z,22.83
2023-01-08T20:42:06.357Z,24.33
2023-01-08T20:44:37.342Z,23.13
2023-01-08T20:47:06.554Z,24.53
2023-01-08T20:49:35.893Z,25.80
2023-01-08T20:52:05.516Z,26.40
2023-01-08T20:54:34.917Z,27.20
2023-01-08T20:57:04.013Z,26.77
2023-01-08T20:59:33.147Z,25.13
2023-01-08T21:02:04.519Z,35.43
2023-01-08T21:04:33.432Z,74.90
2023-01-08T21:07:02.469Z,39.10
2023-01-08T21:09:31.260Z,28.40
2023-01-08T21:12:00.160Z,25.87
2023-01-08T21:14:28.916Z,24.60
2023-01-08T21:16:57.953Z,24.03
2023-01-08T21:19:28.079Z,23.63
2023-01-08T21:21:57.023Z,24.17
2023-01-08T21:24:25.842Z,22.93
2023-01-08T21:26:54.553Z,24.87
2023-01-08T21:29:23.596Z,24.60
2023-01-08T21:31:52.389Z,24.57
2023-01-08T21:34:21.541Z,23.90
2023-01-08T21:36:51.630Z,25.00
2023-01-08T21:39:20.482Z,23.90
2023-01-08T21:42:06.400Z,24.00
2023-01-08T21:44:52.826Z,26.40
2023-01-08T21:47:21.915Z,25.70
2023-01-08T21:49:50.934Z,25.47
2023-01-08T21:52:38.446Z,28.37
2023-01-08T21:55:08.084Z,26.47
2023-01-08T21:57:40.680Z,26.70
2023-01-08T22:00:11.067Z,26.93
2023-01-08T22:02:40.227Z,28.33
2023-01-08T22:05:10.223Z,27.17
2023-01-08T22:07:40.942Z,28.30
2023-01-08T22:10:11.258Z,29.60
2023-01-08T22:12:40.349Z,29.40
2023-01-08T22:15:10.971Z,31.20
2023-01-08T22:17:40.159Z,31.93
2023-01-08T22:20:10.345Z,31.23
2023-01-08T22:22:42.545Z,31.13
2023-01-08T22:25:11.796Z,29.87
2023-01-08T22:27:40.609Z,28.10
2023-01-08T22:30:11.087Z,30.27
2023-01-08T22:32:39.945Z,28.37
2023-01-08T22:35:08.966Z,28.40
2023-01-08T22:37:37.730Z,27.07
2023-01-08T22:40:08.860Z,26.50
2023-01-08T22:42:37.573Z,26.03
2023-01-08T22:45:07.598Z,26.07
2023-01-08T22:47:36.291Z,25.37
2023-01-08T22:50:06.176Z,25.87
2023-01-08T22:52:34.845Z,26.53
2023-01-08T22:55:03.654Z,25.53
2023-01-08T22:57:33.722Z,25.47
2023-01-08T23:00:02.493Z,24.77
2023-01-08T23:02:31.176Z,26.23
2023-01-08T23:04:59.855Z,25.03
2023-01-08T23:07:28.611Z,23.50
2023-01-08T23:09:57.326Z,25.33
2023-01-08T23:12:26.032Z,25.17
2023-01-08T23:14:56.144Z,23.33
2023-01-08T23:17:24.919Z,23.63
2023-01-08T23:19:53.567Z,23.80
2023-01-08T23:22:22.293Z,23.70
2023-01-08T23:24:51.018Z,23.90
2023-01-08T23:27:19.761Z,23.97
2023-01-08T23:29:48.501Z,25.10
2023-01-08T23:32:18.568Z,23.97
2023-01-08T23:34:47.375Z,23.40
2023-01-08T23:37:16.456Z,24.60
2023-01-08T23:39:45.181Z,24.33
2023-01-08T23:42:14.197Z,24.47
2023-01-08T23:44:43.432Z,23.37
2023-01-08T23:47:12.059Z,21.77
2023-01-08T23:49:42.388Z,23.70
2023-01-08T23:52:11.127Z,23.87
2023-01-08T23:54:39.966Z,22.90
2023-01-08T23:57:08.941Z,23.07
2023-01-08T23:59:37.967Z,23.37
